createdAt,value
2017-06-23T00:00:39.861Z,21.68
2017-06-23T00:01:20.402Z,21.58
2017-06-23T00:02:00.941Z,21.61
2017-06-23T00:02:41.486Z,21.69
2017-06-23T00:03:22.033Z,21.69
2017-06-23T00:04:02.577Z,21.74
2017-06-23T00:04:43.125Z,21.65
2017-06-23T00:05:23.667Z,21.61
2017-06-23T00:06:04.215Z,21.67
2017-06-23T00:06:44.757Z,21.68
2017-06-23T00:07:25.295Z,21.69
2017-06-23T00:08:05.838Z,21.68
2017-06-23T00:08:46.373Z,21.67
2017-06-23T00:09:26.912Z,21.72
2017-06-23T00:10:07.465Z,21.65
2017-06-23T00:10:48.003Z,21.65
2017-06-23T00:11:28.539Z,21.67
2017-06-23T00:12:09.085Z,21.62
2017-06-23T00:12:49.637Z,21.59
2017-06-23T00:13:30.177Z,21.56
2017-06-23T00:14:10.722Z,21.56
2017-06-23T00:14:51.247Z,21.59
2017-06-23T00:15:31.796Z,21.52
2017-06-23T00:16:12.341Z,21.59
2017-06-23T00:16:52.878Z,21.58
2017-06-23T00:17:33.414Z,21.58
2017-06-23T00:18:13.957Z,21.56
2017-06-23T00:18:54.498Z,21.49
2017-06-23T00:19:35.047Z,21.52
2017-06-23T00:20:15.582Z,21.56
2017-06-23T00:20:56.116Z,21.54
2017-06-23T00:21:36.663Z,21.53
2017-06-23T00:22:17.203Z,21.59
2017-06-23T00:22:57.745Z,21.52
2017-06-23T00:23:38.284Z,21.56
2017-06-23T00:24:18.828Z,21.52
2017-06-23T00:24:59.367Z,21.59
2017-06-23T00:25:39.910Z,21.5
2017-06-23T00:26:20.454Z,21.5
2017-06-23T00:27:00.990Z,21.49
2017-06-23T00:27:41.535Z,21.49
2017-06-23T00:28:22.083Z,21.5
2017-06-23T00:29:02.626Z,21.47
2017-06-23T00:29:43.159Z,21.5
2017-06-23T00:30:23.695Z,21.49
2017-06-23T00:31:04.239Z,21.46
2017-06-23T00:31:44.775Z,21.5
2017-06-23T00:32:25.322Z,21.5
2017-06-23T00:33:05.864Z,21.47
2017-06-23T00:33:46.407Z,21.43
2017-06-23T00:34:26.953Z,21.46
2017-06-23T00:35:07.494Z,21.38
2017-06-23T00:35:48.027Z,21.34
2017-06-23T00:36:28.566Z,21.34
2017-06-23T00:37:09.106Z,21.32
2017-06-23T00:37:49.654Z,21.32
2017-06-23T00:38:30.184Z,21.32
2017-06-23T00:39:10.730Z,21.28
2017-06-23T00:39:51.269Z,21.37
2017-06-23T00:40:31.807Z,21.27
2017-06-23T00:41:12.351Z,21.35
2017-06-23T00:41:52.886Z,21.32
2017-06-23T00:42:33.437Z,21.32
2017-06-23T00:43:14.003Z,21.34
2017-06-23T00:43:54.547Z,21.38
2017-06-23T00:44:35.092Z,21.32
2017-06-23T00:45:15.627Z,21.34
2017-06-23T00:45:56.163Z,21.32
2017-06-23T00:46:36.708Z,21.38
2017-06-23T00:47:17.249Z,21.42
2017-06-23T00:47:57.788Z,21.37
2017-06-23T00:48:38.329Z,21.38
2017-06-23T00:49:18.875Z,21.37
2017-06-23T00:49:59.415Z,21.34
2017-06-23T00:50:39.956Z,21.46
2017-06-23T00:51:20.503Z,21.38
2017-06-23T00:52:01.049Z,21.34
2017-06-23T00:52:41.593Z,21.37
2017-06-23T00:53:22.133Z,21.27
2017-06-23T00:54:02.668Z,21.32
2017-06-23T00:54:43.211Z,21.22
2017-06-23T00:55:23.753Z,21.21
2017-06-23T00:56:04.297Z,21.17
2017-06-23T00:56:44.835Z,21.21
2017-06-23T00:57:25.378Z,21.21
2017-06-23T00:58:05.921Z,21.19
2017-06-23T00:58:46.456Z,21.25
2017-06-23T00:59:26.999Z,21.06
2017-06-23T01:00:07.541Z,21.07
2017-06-23T01:00:48.076Z,21.09
2017-06-23T01:01:28.621Z,21.12
2017-06-23T01:02:09.173Z,21.09
2017-06-23T01:02:49.706Z,21.14
2017-06-23T01:03:30.243Z,21.14
2017-06-23T01:04:10.788Z,21.14
2017-06-23T01:04:51.342Z,21.09
2017-06-23T01:05:31.871Z,21.09
2017-06-23T01:06:12.415Z,21.12
2017-06-23T01:06:52.952Z,21.09
2017-06-23T01:07:33.487Z,21.09
2017-06-23T01:08:14.026Z,21.17
2017-06-23T01:08:54.572Z,21.13
2017-06-23T01:09:35.113Z,21.1
2017-06-23T01:10:15.645Z,21.12
2017-06-23T01:10:56.185Z,21.12
2017-06-23T01:11:36.727Z,21.14
2017-06-23T01:12:17.272Z,21.16
2017-06-23T01:12:57.823Z,21.07
2017-06-23T01:13:38.362Z,21.07
2017-06-23T01:14:18.909Z,20.99
2017-06-23T01:14:59.452Z,21.09
2017-06-23T01:15:39.991Z,21.14
2017-06-23T01:16:20.536Z,21.1
2017-06-23T01:17:01.083Z,21.19
2017-06-23T01:17:41.623Z,21.1
2017-06-23T01:18:22.170Z,21.1
2017-06-23T01:19:02.715Z,21.07
2017-06-23T01:19:43.256Z,21.1
2017-06-23T01:20:23.797Z,21.13
2017-06-23T01:21:04.329Z,21.14
2017-06-23T01:21:44.877Z,21.03
2017-06-23T01:22:25.406Z,21.01
2017-06-23T01:23:05.987Z,21.04
2017-06-23T01:23:46.533Z,21.03
2017-06-23T01:24:27.074Z,20.94
2017-06-23T01:25:07.605Z,20.99
2017-06-23T01:25:48.150Z,20.99
2017-06-23T01:26:28.693Z,21.03
2017-06-23T01:27:09.232Z,20.94
2017-06-23T01:27:49.787Z,21.01
2017-06-23T01:28:30.320Z,20.95
2017-06-23T01:29:10.855Z,21.04
2017-06-23T01:29:51.396Z,20.91
2017-06-23T01:30:31.942Z,20.91
2017-06-23T01:31:12.491Z,20.91
2017-06-23T01:31:53.039Z,20.89
2017-06-23T01:32:33.585Z,20.88
2017-06-23T01:33:14.126Z,20.89
2017-06-23T01:33:54.675Z,20.94
2017-06-23T01:34:35.212Z,20.88
2017-06-23T01:35:15.757Z,20.94
2017-06-23T01:35:56.298Z,20.92
2017-06-23T01:36:36.840Z,20.8
2017-06-23T01:37:17.377Z,20.82
2017-06-23T01:37:57.925Z,20.84
2017-06-23T01:38:38.457Z,20.82
2017-06-23T01:39:19.000Z,20.8
2017-06-23T01:39:59.541Z,20.82
2017-06-23T01:40:40.086Z,20.87
2017-06-23T01:41:20.627Z,20.87
2017-06-23T01:42:01.167Z,20.85
2017-06-23T01:42:41.708Z,20.88
2017-06-23T01:43:22.251Z,20.85
2017-06-23T01:44:02.798Z,20.84
2017-06-23T01:44:43.340Z,20.85
2017-06-23T01:45:23.883Z,20.87
2017-06-23T01:46:04.432Z,20.91
2017-06-23T01:46:44.968Z,20.91
2017-06-23T01:47:25.514Z,20.94
2017-06-23T01:48:06.055Z,20.88
2017-06-23T01:48:46.594Z,20.84
2017-06-23T01:49:27.128Z,20.79
2017-06-23T01:50:07.673Z,20.77
2017-06-23T01:50:48.216Z,20.79
2017-06-23T01:51:28.762Z,20.8
2017-06-23T01:52:09.307Z,20.79
2017-06-23T01:52:49.846Z,20.77
2017-06-23T01:53:30.396Z,20.84
2017-06-23T01:54:10.941Z,20.79
2017-06-23T01:54:51.480Z,20.85
2017-06-23T01:55:32.023Z,20.79
2017-06-23T01:56:12.554Z,20.73
2017-06-23T01:56:53.091Z,20.73
2017-06-23T01:57:33.632Z,20.72
2017-06-23T01:58:14.167Z,20.72
2017-06-23T01:58:54.713Z,20.77
2017-06-23T01:59:35.255Z,20.76
2017-06-23T02:00:15.799Z,20.82
2017-06-23T02:00:56.346Z,20.84
2017-06-23T02:01:36.885Z,20.77
2017-06-23T02:02:17.429Z,20.8
2017-06-23T02:02:57.975Z,20.8
2017-06-23T02:03:38.499Z,20.79
2017-06-23T02:04:19.058Z,20.79
2017-06-23T02:04:59.598Z,20.79
2017-06-23T02:05:40.137Z,20.85
2017-06-23T02:06:20.682Z,20.84
2017-06-23T02:07:01.224Z,20.77
2017-06-23T02:07:41.775Z,20.8
2017-06-23T02:08:22.312Z,20.82
2017-06-23T02:09:02.861Z,20.88
2017-06-23T02:09:43.397Z,20.88
2017-06-23T02:10:23.942Z,20.85
2017-06-23T02:11:04.572Z,20.89
2017-06-23T02:11:45.095Z,20.85
2017-06-23T02:12:25.639Z,20.85
2017-06-23T02:13:06.183Z,20.87
2017-06-23T02:13:46.722Z,20.89
2017-06-23T02:14:27.265Z,20.92
2017-06-23T02:15:07.811Z,20.84
2017-06-23T02:15:48.351Z,20.82
2017-06-23T02:16:28.885Z,20.85
2017-06-23T02:17:09.426Z,20.8
2017-06-23T02:17:49.958Z,20.82
2017-06-23T02:18:30.504Z,20.8
2017-06-23T02:19:11.045Z,20.8
2017-06-23T02:19:51.576Z,20.8
2017-06-23T02:20:32.123Z,20.79
2017-06-23T02:21:12.667Z,20.79
2017-06-23T02:21:53.207Z,20.85
2017-06-23T02:22:33.750Z,20.92
2017-06-23T02:23:14.290Z,20.84
2017-06-23T02:23:54.815Z,20.79
2017-06-23T02:24:35.357Z,20.94
2017-06-23T02:25:15.898Z,20.88
2017-06-23T02:25:56.434Z,20.88
2017-06-23T02:26:36.967Z,20.91
2017-06-23T02:27:17.512Z,20.89
2017-06-23T02:27:58.056Z,20.87
2017-06-23T02:28:38.594Z,20.89
2017-06-23T02:29:19.131Z,20.85
2017-06-23T02:29:59.667Z,20.89
2017-06-23T02:30:40.203Z,20.88
2017-06-23T02:31:20.749Z,20.91
2017-06-23T02:32:01.288Z,20.95
2017-06-23T02:32:41.824Z,20.95
2017-06-23T02:33:22.367Z,20.89
2017-06-23T02:34:02.899Z,20.87
2017-06-23T02:34:43.431Z,20.92
2017-06-23T02:35:23.970Z,20.98
2017-06-23T02:36:04.513Z,20.88
2017-06-23T02:36:45.054Z,20.87
2017-06-23T02:37:25.596Z,20.94
2017-06-23T02:38:06.129Z,20.95
2017-06-23T02:38:46.663Z,20.88
2017-06-23T02:39:27.213Z,20.87
2017-06-23T02:40:07.754Z,20.84
2017-06-23T02:40:48.298Z,20.8
2017-06-23T02:41:28.833Z,20.76
2017-06-23T02:42:09.378Z,20.73
2017-06-23T02:42:49.913Z,20.77
2017-06-23T02:43:30.468Z,20.79
2017-06-23T02:44:11.015Z,20.82
2017-06-23T02:44:51.554Z,20.8
2017-06-23T02:45:32.095Z,20.79
2017-06-23T02:46:12.650Z,20.79
2017-06-23T02:46:53.196Z,20.84
2017-06-23T02:47:33.733Z,20.92
2017-06-23T02:48:14.278Z,20.89
2017-06-23T02:48:54.814Z,20.89
2017-06-23T02:49:35.351Z,20.94
2017-06-23T02:50:15.895Z,20.87
2017-06-23T02:50:56.435Z,20.91
2017-06-23T02:51:36.974Z,20.91
2017-06-23T02:52:17.526Z,20.95
2017-06-23T02:52:58.062Z,20.97
2017-06-23T02:53:38.603Z,21.01
2017-06-23T02:54:19.156Z,20.97
2017-06-23T02:54:59.707Z,20.92
2017-06-23T02:55:40.253Z,20.98
2017-06-23T02:56:20.794Z,20.97
2017-06-23T02:57:01.339Z,20.99
2017-06-23T02:57:41.879Z,20.98
2017-06-23T02:58:22.425Z,20.94
2017-06-23T02:59:02.954Z,20.92
2017-06-23T02:59:43.496Z,20.97
2017-06-23T03:00:24.043Z,20.97
2017-06-23T03:01:04.589Z,21.01
2017-06-23T03:01:45.132Z,20.91
2017-06-23T03:02:25.671Z,20.95
2017-06-23T03:03:06.218Z,20.95
2017-06-23T03:03:46.760Z,20.94
2017-06-23T03:04:27.319Z,20.98
2017-06-23T03:05:07.900Z,20.92
2017-06-23T03:05:48.442Z,20.97
2017-06-23T03:06:28.991Z,20.89
2017-06-23T03:07:09.515Z,20.94
2017-06-23T03:07:50.056Z,20.94
2017-06-23T03:08:30.600Z,20.91
2017-06-23T03:09:11.149Z,20.98
2017-06-23T03:09:51.696Z,20.89
2017-06-23T03:10:32.238Z,20.95
2017-06-23T03:11:12.766Z,20.94
2017-06-23T03:11:53.308Z,20.88
2017-06-23T03:12:33.851Z,20.92
2017-06-23T03:13:14.398Z,21.03
2017-06-23T03:13:54.932Z,20.98
2017-06-23T03:14:35.482Z,20.92
2017-06-23T03:15:16.030Z,21.01
2017-06-23T03:15:56.565Z,20.98
2017-06-23T03:16:37.105Z,20.97
2017-06-23T03:17:17.646Z,21.01
2017-06-23T03:17:58.189Z,20.97
2017-06-23T03:18:38.723Z,20.94
2017-06-23T03:19:19.266Z,20.92
2017-06-23T03:19:59.814Z,20.94
2017-06-23T03:20:40.359Z,20.94
2017-06-23T03:21:20.901Z,20.98
2017-06-23T03:22:01.442Z,20.91
2017-06-23T03:22:41.992Z,20.92
2017-06-23T03:23:22.539Z,20.94
2017-06-23T03:24:03.087Z,20.98
2017-06-23T03:24:43.620Z,20.99
2017-06-23T03:25:24.171Z,20.97
2017-06-23T03:26:04.700Z,20.95
2017-06-23T03:26:45.247Z,20.95
2017-06-23T03:27:25.778Z,20.91
2017-06-23T03:28:06.316Z,20.94
2017-06-23T03:28:46.866Z,20.97
2017-06-23T03:29:27.411Z,20.94
2017-06-23T03:30:07.954Z,20.91
2017-06-23T03:30:48.497Z,20.97
2017-06-23T03:31:29.041Z,20.94
2017-06-23T03:32:09.582Z,20.94
2017-06-23T03:32:50.141Z,20.99
2017-06-23T03:33:30.682Z,21.03
2017-06-23T03:34:11.279Z,21.03
2017-06-23T03:34:51.787Z,21.01
2017-06-23T03:35:32.296Z,20.95
2017-06-23T03:36:12.813Z,21.07
2017-06-23T03:36:53.349Z,21.07
2017-06-23T03:37:33.881Z,21.09
2017-06-23T03:38:14.419Z,21.06
2017-06-23T03:38:55.031Z,21.06
2017-06-23T03:39:35.553Z,21.09
2017-06-23T03:40:16.093Z,21.14
2017-06-23T03:40:56.643Z,21.12
2017-06-23T03:41:37.196Z,21.14
2017-06-23T03:42:17.728Z,21.13
2017-06-23T03:42:58.249Z,21.19
2017-06-23T03:43:38.809Z,21.24
2017-06-23T03:44:19.341Z,21.17
2017-06-23T03:44:59.941Z,21.32
2017-06-23T03:45:40.477Z,21.31
2017-06-23T03:46:21.059Z,21.34
2017-06-23T03:47:01.603Z,21.34
2017-06-23T03:47:42.113Z,21.27
2017-06-23T03:48:22.639Z,21.35
2017-06-23T03:49:03.166Z,21.24
2017-06-23T03:49:43.720Z,21.34
2017-06-23T03:50:24.228Z,21.38
2017-06-23T03:51:04.759Z,21.24
2017-06-23T03:51:45.286Z,21.17
2017-06-23T03:52:25.809Z,21.22
2017-06-23T03:53:06.338Z,21.25
2017-06-23T03:53:46.875Z,21.29
2017-06-23T03:54:27.432Z,21.29
2017-06-23T03:55:07.964Z,21.21
2017-06-23T03:55:48.500Z,21.22
2017-06-23T03:56:29.057Z,21.21
2017-06-23T03:57:09.613Z,21.21
2017-06-23T03:57:50.119Z,21.24
2017-06-23T03:58:30.610Z,21.22
2017-06-23T03:59:11.218Z,21.21
2017-06-23T03:59:51.772Z,21.19
2017-06-23T04:00:32.319Z,21.22
2017-06-23T04:01:12.856Z,21.34
2017-06-23T04:01:53.383Z,21.35
2017-06-23T04:02:33.914Z,21.32
2017-06-23T04:03:14.459Z,21.19
2017-06-23T04:03:55.002Z,21.28
2017-06-23T04:04:35.573Z,21.35
2017-06-23T04:05:16.138Z,21.22
2017-06-23T04:05:56.674Z,21.27
2017-06-23T04:06:37.227Z,21.4
2017-06-23T04:07:17.771Z,21.29
2017-06-23T04:07:58.318Z,21.29
2017-06-23T04:08:38.868Z,21.35
2017-06-23T04:09:19.417Z,21.29
2017-06-23T04:09:59.959Z,21.35
2017-06-23T04:10:40.517Z,21.35
2017-06-23T04:11:21.164Z,21.38
2017-06-23T04:13:40.576Z,21.35
2017-06-23T04:14:21.101Z,21.32
2017-06-23T04:15:01.593Z,21.32
2017-06-23T04:15:42.129Z,21.29
2017-06-23T04:16:22.653Z,21.37
2017-06-23T04:17:03.197Z,21.38
2017-06-23T04:17:43.731Z,21.31
2017-06-23T04:18:24.283Z,21.37
2017-06-23T04:19:04.850Z,21.32
2017-06-23T04:19:45.399Z,21.31
2017-06-23T04:20:25.956Z,21.27
2017-06-23T04:21:06.485Z,21.32
2017-06-23T04:21:47.049Z,21.27
2017-06-23T04:22:27.577Z,21.38
2017-06-23T04:23:08.125Z,21.35
2017-06-23T04:23:48.659Z,21.34
2017-06-23T04:24:29.199Z,21.19
2017-06-23T04:25:09.740Z,21.16
2017-06-23T04:25:50.269Z,21.16
2017-06-23T04:26:30.781Z,21.19
2017-06-23T04:27:11.326Z,21.17
2017-06-23T04:27:51.861Z,21.29
2017-06-23T04:28:32.427Z,21.27
2017-06-23T04:29:12.969Z,21.34
2017-06-23T04:29:53.485Z,21.32
2017-06-23T04:30:34.021Z,21.32
2017-06-23T04:31:14.601Z,21.34
2017-06-23T04:31:55.147Z,21.16
2017-06-23T04:32:35.687Z,21.28
2017-06-23T04:33:16.273Z,21.32
2017-06-23T04:33:56.770Z,21.35
2017-06-23T04:34:37.289Z,21.21
2017-06-23T04:35:17.832Z,21.31
2017-06-23T04:35:58.370Z,21.19
2017-06-23T04:36:38.897Z,21.19
2017-06-23T04:37:19.431Z,21.14
2017-06-23T04:37:59.970Z,21.25
2017-06-23T04:38:40.516Z,21.22
2017-06-23T04:39:21.038Z,21.19
2017-06-23T04:40:01.615Z,21.16
2017-06-23T04:40:42.153Z,21.25
2017-06-23T04:41:22.720Z,21.22
2017-06-23T04:42:03.239Z,21.21
2017-06-23T04:42:43.816Z,21.17
2017-06-23T04:43:24.361Z,21.29
2017-06-23T04:44:04.917Z,21.29
2017-06-23T04:44:45.481Z,21.21
2017-06-23T04:45:26.020Z,21.28
2017-06-23T04:46:06.565Z,21.27
2017-06-23T04:46:47.112Z,21.21
2017-06-23T04:47:27.650Z,21.22
2017-06-23T04:48:08.199Z,21.21
2017-06-23T04:48:48.765Z,21.27
2017-06-23T04:49:29.336Z,21.21
2017-06-23T04:50:09.887Z,21.19
2017-06-23T04:50:50.410Z,21.14
2017-06-23T04:51:30.957Z,21.21
2017-06-23T04:52:11.466Z,21.12
2017-06-23T04:52:51.990Z,21.06
2017-06-23T04:53:32.517Z,21.09
2017-06-23T04:54:13.056Z,21.1
2017-06-23T04:54:53.598Z,21.19
2017-06-23T04:55:34.135Z,21.24
2017-06-23T04:56:14.674Z,21.29
2017-06-23T04:56:55.209Z,21.19
2017-06-23T04:57:35.746Z,21.21
2017-06-23T04:58:16.324Z,21.21
2017-06-23T04:58:56.837Z,21.29
2017-06-23T04:59:37.375Z,21.17
2017-06-23T05:00:17.935Z,21.22
2017-06-23T05:00:58.485Z,21.24
2017-06-23T05:01:39.026Z,21.22
2017-06-23T05:02:19.564Z,21.24
2017-06-23T05:03:00.100Z,21.28
2017-06-23T05:03:40.645Z,21.29
2017-06-23T05:04:21.177Z,21.35
2017-06-23T05:05:01.716Z,21.21
2017-06-23T05:05:42.258Z,21.28
2017-06-23T05:06:22.807Z,21.35
2017-06-23T05:07:03.358Z,21.35
2017-06-23T05:07:43.890Z,21.31
2017-06-23T05:08:24.439Z,21.24
2017-06-23T05:09:04.982Z,21.32
2017-06-23T05:09:45.524Z,21.34
2017-06-23T05:10:26.077Z,21.34
2017-06-23T05:11:06.614Z,21.32
2017-06-23T05:11:47.150Z,21.17
2017-06-23T05:12:27.721Z,21.19
2017-06-23T05:13:08.258Z,21.22
2017-06-23T05:13:48.797Z,21.19
2017-06-23T05:14:29.320Z,21.34
2017-06-23T05:15:09.869Z,21.22
2017-06-23T05:15:50.404Z,21.19
2017-06-23T05:16:30.949Z,21.25
2017-06-23T05:17:11.491Z,21.17
2017-06-23T05:17:52.066Z,21.28
2017-06-23T05:18:32.629Z,21.19
2017-06-23T05:19:13.159Z,21.38
2017-06-23T05:19:53.701Z,21.29
2017-06-23T05:20:34.283Z,21.32
2017-06-23T05:21:14.819Z,21.34
2017-06-23T05:21:55.370Z,21.32
2017-06-23T05:22:35.918Z,21.37
2017-06-23T05:23:16.457Z,21.31
2017-06-23T05:23:57.002Z,21.34
2017-06-23T05:24:37.515Z,21.34
2017-06-23T05:25:18.058Z,21.25
2017-06-23T05:25:58.579Z,21.24
2017-06-23T05:26:39.125Z,21.21
2017-06-23T05:27:19.661Z,21.21
2017-06-23T05:28:00.213Z,21.37
2017-06-23T05:28:40.756Z,21.34
2017-06-23T05:29:21.279Z,21.49
2017-06-23T05:30:01.839Z,21.43
2017-06-23T05:30:42.374Z,21.5
2017-06-23T05:31:22.972Z,21.5
2017-06-23T05:32:03.496Z,21.52
2017-06-23T05:32:44.021Z,21.52
2017-06-23T05:33:24.550Z,21.54
2017-06-23T05:34:05.084Z,21.52
2017-06-23T05:34:45.633Z,21.53
2017-06-23T05:35:26.174Z,21.54
2017-06-23T05:36:06.723Z,21.59
2017-06-23T05:36:47.255Z,21.64
2017-06-23T05:37:27.794Z,21.54
2017-06-23T05:38:08.336Z,21.56
2017-06-23T05:38:48.884Z,21.54
2017-06-23T05:39:29.402Z,21.58
2017-06-23T05:40:09.924Z,21.54
2017-06-23T05:40:50.467Z,21.54
2017-06-23T05:41:31.019Z,21.54
2017-06-23T05:42:11.569Z,21.49
2017-06-23T05:42:52.103Z,21.47
2017-06-23T05:43:32.658Z,21.54
2017-06-23T05:44:13.200Z,21.52
2017-06-23T05:44:53.759Z,21.56
2017-06-23T05:45:34.297Z,21.58
2017-06-23T05:46:14.841Z,21.64
2017-06-23T05:46:55.370Z,21.64
2017-06-23T05:47:36.043Z,21.65
2017-06-23T05:48:16.661Z,21.56
2017-06-23T05:48:57.189Z,21.62
2017-06-23T05:49:37.722Z,21.62
2017-06-23T05:50:18.261Z,21.59
2017-06-23T05:50:58.884Z,21.72
2017-06-23T05:51:39.372Z,21.67
2017-06-23T05:52:19.921Z,21.71
2017-06-23T05:53:00.474Z,21.69
2017-06-23T05:53:41.014Z,21.69
2017-06-23T05:54:21.555Z,21.77
2017-06-23T05:55:02.141Z,21.68
2017-06-23T05:55:42.650Z,21.64
2017-06-23T05:56:23.172Z,21.64
2017-06-23T05:57:03.730Z,21.62
2017-06-23T05:57:44.262Z,21.67
2017-06-23T05:58:24.816Z,21.62
2017-06-23T05:59:05.353Z,21.67
2017-06-23T05:59:45.917Z,21.64
2017-06-23T06:00:26.431Z,21.65
2017-06-23T06:01:06.977Z,21.65
2017-06-23T06:01:47.539Z,21.75
2017-06-23T06:02:28.064Z,21.72
2017-06-23T06:03:08.613Z,21.72
2017-06-23T06:03:49.129Z,21.71
2017-06-23T06:04:29.661Z,21.84
2017-06-23T06:05:10.188Z,21.8
2017-06-23T06:05:50.727Z,21.88
2017-06-23T06:06:31.271Z,21.91
2017-06-23T06:07:11.806Z,21.96
2017-06-23T06:07:52.355Z,21.99
2017-06-23T06:08:32.895Z,22.03
2017-06-23T06:09:13.424Z,22.09
2017-06-23T06:09:53.962Z,22.07
2017-06-23T06:10:34.502Z,22.12
2017-06-23T06:11:15.053Z,22.17
2017-06-23T06:11:55.595Z,22.24
2017-06-23T06:12:36.156Z,22.2
2017-06-23T06:13:16.695Z,22.07
2017-06-23T06:13:57.257Z,22.09
2017-06-23T06:14:37.796Z,22.2
2017-06-23T06:15:18.345Z,22.21
2017-06-23T06:15:58.900Z,22.21
2017-06-23T06:16:39.439Z,22.2
2017-06-23T06:17:19.984Z,22.22
2017-06-23T06:18:00.553Z,22.2
2017-06-23T06:18:41.099Z,22.12
2017-06-23T06:19:21.648Z,22.15
2017-06-23T06:20:02.195Z,22.14
2017-06-23T06:20:42.743Z,22.03
2017-06-23T06:21:23.273Z,22.06
2017-06-23T06:22:03.806Z,22.14
2017-06-23T06:22:44.339Z,21.99
2017-06-23T06:23:24.872Z,22.03
2017-06-23T06:24:05.393Z,21.99
2017-06-23T06:24:45.941Z,22.1
2017-06-23T06:25:26.501Z,22.06
2017-06-23T06:26:07.041Z,22.06
2017-06-23T06:26:47.611Z,22.14
2017-06-23T06:27:28.138Z,22.03
2017-06-23T06:28:08.646Z,22
2017-06-23T06:28:49.178Z,21.98
2017-06-23T06:29:29.714Z,22.03
2017-06-23T06:30:10.263Z,22
2017-06-23T06:30:50.811Z,22.02
2017-06-23T06:31:31.352Z,22
2017-06-23T06:32:11.872Z,21.94
2017-06-23T06:32:52.399Z,22
2017-06-23T06:33:32.912Z,22.05
2017-06-23T06:34:13.456Z,22.03
2017-06-23T06:34:54.003Z,22.07
2017-06-23T06:35:34.554Z,22.06
2017-06-23T06:36:15.109Z,21.98
2017-06-23T06:36:55.643Z,21.98
2017-06-23T06:37:36.206Z,22.03
2017-06-23T06:38:16.708Z,22.05
2017-06-23T06:38:57.233Z,22.05
2017-06-23T06:39:37.752Z,22.03
2017-06-23T06:40:18.288Z,22.03
2017-06-23T06:40:58.833Z,21.98
2017-06-23T06:41:39.359Z,21.98
2017-06-23T06:42:19.909Z,21.98
2017-06-23T06:43:00.412Z,21.92
2017-06-23T06:43:40.952Z,21.94
2017-06-23T06:44:21.483Z,21.96
2017-06-23T06:45:02.004Z,21.99
2017-06-23T06:45:42.540Z,21.94
2017-06-23T06:46:23.062Z,21.94
2017-06-23T06:47:03.610Z,21.96
2017-06-23T06:47:44.135Z,22.05
2017-06-23T06:48:24.672Z,22.02
2017-06-23T06:49:05.197Z,22.03
2017-06-23T06:49:45.742Z,21.9
2017-06-23T06:50:26.279Z,22.02
2017-06-23T06:51:06.822Z,21.86
2017-06-23T06:51:47.359Z,21.91
2017-06-23T06:52:27.895Z,21.88
2017-06-23T06:53:08.436Z,21.96
2017-06-23T06:53:48.965Z,21.98
2017-06-23T06:54:29.510Z,21.94
2017-06-23T06:55:10.070Z,22.05
2017-06-23T06:55:50.595Z,21.98
2017-06-23T06:56:31.145Z,21.98
2017-06-23T06:57:11.685Z,22.02
2017-06-23T06:57:52.225Z,21.91
2017-06-23T06:58:32.769Z,21.83
2017-06-23T06:59:13.312Z,21.86
2017-06-23T06:59:53.853Z,21.74
2017-06-23T07:00:34.396Z,21.74
2017-06-23T07:01:14.927Z,21.65
2017-06-23T07:01:55.467Z,21.69
2017-06-23T07:02:36.003Z,21.61
2017-06-23T07:03:16.551Z,21.58
2017-06-23T07:03:57.092Z,21.72
2017-06-23T07:04:37.636Z,21.65
2017-06-23T07:05:18.175Z,21.64
2017-06-23T07:05:58.724Z,21.74
2017-06-23T07:06:39.239Z,21.65
2017-06-23T07:07:19.765Z,21.75
2017-06-23T07:08:00.308Z,21.79
2017-06-23T07:08:40.848Z,21.67
2017-06-23T07:09:21.391Z,21.8
2017-06-23T07:10:01.929Z,21.82
2017-06-23T07:10:42.471Z,21.88
2017-06-23T07:11:23.020Z,21.96
2017-06-23T07:12:03.570Z,21.86
2017-06-23T07:12:44.115Z,21.88
2017-06-23T07:13:24.660Z,21.92
2017-06-23T07:14:05.197Z,21.83
2017-06-23T07:14:45.735Z,21.83
2017-06-23T07:15:26.275Z,21.82
2017-06-23T07:16:06.818Z,21.91
2017-06-23T07:16:47.371Z,21.88
2017-06-23T07:17:27.903Z,21.88
2017-06-23T07:18:08.444Z,21.88
2017-06-23T07:18:48.983Z,21.92
2017-06-23T07:19:29.531Z,21.92
2017-06-23T07:20:10.073Z,22
2017-06-23T07:20:50.618Z,21.99
2017-06-23T07:21:31.153Z,22.03
2017-06-23T07:22:11.692Z,22.05
2017-06-23T07:22:52.244Z,22.02
2017-06-23T07:23:32.771Z,22.03
2017-06-23T07:24:13.306Z,22.07
2017-06-23T07:24:53.881Z,22.17
2017-06-23T07:25:34.413Z,22.1
2017-06-23T07:26:14.965Z,22.03
2017-06-23T07:26:55.512Z,22.07
2017-06-23T07:27:36.062Z,22.03
2017-06-23T07:28:16.614Z,21.9
2017-06-23T07:28:57.186Z,21.91
2017-06-23T07:29:37.720Z,21.98
2017-06-23T07:30:18.241Z,21.98
2017-06-23T07:30:58.763Z,22.02
2017-06-23T07:31:39.288Z,22.05
2017-06-23T07:32:19.837Z,22.06
2017-06-23T07:33:00.369Z,22.09
2017-06-23T07:33:40.906Z,22.18
2017-06-23T07:34:21.444Z,22.21
2017-06-23T07:35:01.985Z,22.24
2017-06-23T07:35:42.526Z,22.27
2017-06-23T07:36:23.061Z,22.3
2017-06-23T07:37:03.608Z,22.31
2017-06-23T07:37:44.151Z,22.43
2017-06-23T07:38:24.695Z,22.42
2017-06-23T07:39:05.238Z,22.45
2017-06-23T07:39:45.788Z,22.47
2017-06-23T07:40:26.331Z,22.49
2017-06-23T07:41:06.865Z,22.52
2017-06-23T07:41:47.420Z,22.46
2017-06-23T07:42:27.963Z,22.4
2017-06-23T07:43:08.518Z,22.43
2017-06-23T07:43:49.032Z,22.4
2017-06-23T07:44:29.585Z,22.46
2017-06-23T07:45:10.113Z,22.47
2017-06-23T07:45:50.636Z,22.47
2017-06-23T07:46:31.168Z,22.51
2017-06-23T07:47:11.717Z,22.49
2017-06-23T07:47:52.251Z,22.43
2017-06-23T07:48:32.794Z,22.43
2017-06-23T07:49:13.320Z,22.4
2017-06-23T07:49:53.867Z,22.47
2017-06-23T07:50:34.413Z,22.45
2017-06-23T07:51:14.962Z,22.49
2017-06-23T07:51:55.510Z,22.49
2017-06-23T07:52:36.056Z,22.49
2017-06-23T07:53:16.603Z,22.58
2017-06-23T07:53:57.153Z,22.49
2017-06-23T07:54:37.719Z,22.51
2017-06-23T07:55:18.234Z,22.52
2017-06-23T07:55:58.771Z,22.57
2017-06-23T07:56:39.300Z,22.65
2017-06-23T07:57:19.829Z,22.65
2017-06-23T07:58:00.382Z,22.6
2017-06-23T07:58:40.907Z,22.65
2017-06-23T07:59:21.508Z,22.73
2017-06-23T08:00:02.038Z,22.79
2017-06-23T08:00:42.579Z,22.75
2017-06-23T08:01:23.127Z,22.75
2017-06-23T08:02:03.651Z,22.83
2017-06-23T08:02:44.181Z,22.82
2017-06-23T08:03:24.719Z,22.9
2017-06-23T08:04:05.262Z,22.92
2017-06-23T08:04:45.806Z,22.95
2017-06-23T08:05:26.338Z,22.92
2017-06-23T08:06:06.882Z,22.97
2017-06-23T08:06:47.432Z,23.02
2017-06-23T08:07:27.973Z,23.02
2017-06-23T08:08:08.516Z,23.05
2017-06-23T08:08:49.067Z,23.01
2017-06-23T08:09:29.607Z,23.12
2017-06-23T08:10:10.152Z,23.19
2017-06-23T08:10:50.731Z,23.12
2017-06-23T08:11:31.248Z,23.02
2017-06-23T08:12:11.799Z,23.16
2017-06-23T08:12:52.335Z,23.04
2017-06-23T08:13:32.881Z,23.02
2017-06-23T08:14:13.415Z,22.98
2017-06-23T08:14:53.951Z,23
2017-06-23T08:15:34.487Z,23.09
2017-06-23T08:16:15.016Z,23.04
2017-06-23T08:16:55.546Z,23.1
2017-06-23T08:17:36.090Z,23.17
2017-06-23T08:18:16.633Z,23.2
2017-06-23T08:18:57.182Z,23.28
2017-06-23T08:19:37.712Z,23.28
2017-06-23T08:20:18.238Z,23.39
2017-06-23T08:20:58.767Z,23.43
2017-06-23T08:21:39.308Z,23.38
2017-06-23T08:22:19.851Z,23.48
2017-06-23T08:23:00.397Z,23.48
2017-06-23T08:23:40.936Z,23.53
2017-06-23T08:24:21.477Z,23.46
2017-06-23T08:25:01.989Z,23.43
2017-06-23T08:25:42.539Z,23.57
2017-06-23T08:26:23.088Z,23.65
2017-06-23T08:27:03.613Z,23.73
2017-06-23T08:27:44.164Z,23.72
2017-06-23T08:28:24.704Z,23.93
2017-06-23T08:29:05.237Z,23.95
2017-06-23T08:29:45.765Z,23.93
2017-06-23T08:30:26.308Z,23.95
2017-06-23T08:31:06.851Z,24.05
2017-06-23T08:31:47.393Z,24
2017-06-23T08:32:27.939Z,23.94
2017-06-23T08:33:08.493Z,23.9
2017-06-23T08:33:49.044Z,23.94
2017-06-23T08:34:29.596Z,23.72
2017-06-23T08:35:10.145Z,23.58
2017-06-23T08:35:50.696Z,23.61
2017-06-23T08:36:31.234Z,23.57
2017-06-23T08:37:11.775Z,23.43
2017-06-23T08:37:52.320Z,23.51
2017-06-23T08:38:32.860Z,23.47
2017-06-23T08:39:13.409Z,23.5
2017-06-23T08:39:53.959Z,23.47
2017-06-23T08:40:34.508Z,23.47
2017-06-23T08:41:15.056Z,23.57
2017-06-23T08:41:55.605Z,23.53
2017-06-23T08:42:36.133Z,23.51
2017-06-23T08:43:16.674Z,23.51
2017-06-23T08:43:57.219Z,23.4
2017-06-23T08:44:37.789Z,23.4
2017-06-23T08:45:18.309Z,23.39